THY1TR LTFM-LROP
Flight info
| Callsign | THY1TR |
|---|---|
| Flight time | 0h 49m |
| Altitude | 32000 |
| Route | IBLAX1D/35L IBLAX P727 BGS L622 GONGO DCT KOMAN DCT OBUGA |
| Aircraft | B77W/H-SDE1E2E3FGHIJ2J3J4J5M1RWXY/LB1D1 |
Departure
| Time | 2026-05-04 20:59 |
|---|---|
| Airport | İstanbul Airport (LTFM) |
Arrival
| Time | 2026-05-04 21:48 |
|---|---|
| Airport | Bucharest Henri Coandă International Airport (LROP) |
| Time | Latitude | Longitude | Altitude | Speed | Heading |
|---|---|---|---|---|---|
| 2026-05-04 20:34 | 41.26475 | 28.74122 | 333 ft | 0 kts | 91° |
| 2026-05-04 20:49 | 41.26475 | 28.74108 | 339 ft | 2 kts | 89° |
| 2026-05-04 20:49 | 41.26475 | 28.74086 | 333 ft | 2 kts | 87° |
| 2026-05-04 20:49 | 41.26474 | 28.74064 | 333 ft | 2 kts | 81° |
| 2026-05-04 20:49 | 41.26470 | 28.74043 | 333 ft | 2 kts | 63° |
| 2026-05-04 20:50 | 41.26459 | 28.74027 | 333 ft | 2 kts | 11° |
| 2026-05-04 20:50 | 41.26452 | 28.74026 | 333 ft | 0 kts | 1° |
| 2026-05-04 20:50 | 41.26465 | 28.74026 | 333 ft | 12 kts | 0° |
| 2026-05-04 20:51 | 41.26608 | 28.74022 | 335 ft | 23 kts | 359° |
| 2026-05-04 20:51 | 41.26767 | 28.74019 | 334 ft | 23 kts | 359° |
| 2026-05-04 20:51 | 41.26926 | 28.74015 | 337 ft | 23 kts | 359° |
| 2026-05-04 20:51 | 41.27048 | 28.73936 | 335 ft | 24 kts | 280° |
| 2026-05-04 20:52 | 41.27049 | 28.73713 | 337 ft | 24 kts | 269° |
| 2026-05-04 20:52 | 41.27047 | 28.73487 | 335 ft | 24 kts | 269° |
| 2026-05-04 20:52 | 41.27043 | 28.73266 | 339 ft | 24 kts | 269° |
| 2026-05-04 20:52 | 41.27037 | 28.73052 | 339 ft | 22 kts | 256° |
| 2026-05-04 20:53 | 41.26910 | 28.72989 | 335 ft | 20 kts | 180° |
| 2026-05-04 20:53 | 41.26794 | 28.72991 | 335 ft | 14 kts | 179° |
| 2026-05-04 20:53 | 41.26723 | 28.72978 | 336 ft | 7 kts | 231° |
| 2026-05-04 20:53 | 41.26719 | 28.72941 | 336 ft | 0 kts | 272° |
| 2026-05-04 20:57 | 41.26717 | 28.72908 | 336 ft | 15 kts | 268° |
| 2026-05-04 20:57 | 41.26714 | 28.72690 | 334 ft | 26 kts | 269° |
| 2026-05-04 20:58 | 41.26736 | 28.72524 | 335 ft | 15 kts | 324° |
| 2026-05-04 20:58 | 41.26841 | 28.72512 | 335 ft | 22 kts | 359° |
| 2026-05-04 20:58 | 41.27279 | 28.72498 | 336 ft | 121 kts | 359° |
| 2026-05-04 20:58 | 41.28504 | 28.72482 | 577 ft | 216 kts | 358° |
| 2026-05-04 20:59 | 41.30109 | 28.72487 | 2050 ft | 234 kts | 359° |
| 2026-05-04 20:59 | 41.31648 | 28.72487 | 4370 ft | 205 kts | 1° |
| 2026-05-04 20:59 | 41.33046 | 28.72492 | 5755 ft | 204 kts | 2° |
| 2026-05-04 20:59 | 41.34555 | 28.72508 | 6369 ft | 227 kts | 2° |
| 2026-05-04 21:00 | 41.36165 | 28.72525 | 7300 ft | 236 kts | 2° |
| 2026-05-04 21:00 | 41.37824 | 28.72498 | 8277 ft | 242 kts | 356° |
| 2026-05-04 21:00 | 41.39461 | 28.71788 | 9170 ft | 254 kts | 339° |
| 2026-05-04 21:00 | 41.41075 | 28.70736 | 10141 ft | 261 kts | 339° |
| 2026-05-04 21:01 | 41.42763 | 28.69661 | 10830 ft | 281 kts | 339° |
| 2026-05-04 21:01 | 41.44628 | 28.68478 | 11098 ft | 314 kts | 339° |
| 2026-05-04 21:01 | 41.46675 | 28.67170 | 11657 ft | 335 kts | 339° |
| 2026-05-04 21:01 | 41.48810 | 28.65796 | 12590 ft | 345 kts | 339° |
| 2026-05-04 21:02 | 41.50998 | 28.64387 | 13648 ft | 352 kts | 339° |
| 2026-05-04 21:02 | 41.53225 | 28.62957 | 14661 ft | 357 kts | 339° |
| 2026-05-04 21:02 | 41.55480 | 28.61511 | 15686 ft | 362 kts | 339° |
| 2026-05-04 21:02 | 41.57700 | 28.59890 | 16501 ft | 373 kts | 328° |
| 2026-05-04 21:03 | 41.59556 | 28.57461 | 17183 ft | 386 kts | 315° |
| 2026-05-04 21:03 | 41.61322 | 28.54692 | 17993 ft | 395 kts | 316° |
| 2026-05-04 21:03 | 41.63184 | 28.51903 | 18947 ft | 398 kts | 317° |
| 2026-05-04 21:03 | 41.65027 | 28.49197 | 19884 ft | 400 kts | 317° |
| 2026-05-04 21:04 | 41.66961 | 28.46543 | 20683 ft | 398 kts | 325° |
| 2026-05-04 21:04 | 41.69315 | 28.44667 | 21381 ft | 390 kts | 342° |
| 2026-05-04 21:04 | 41.71889 | 28.43351 | 22041 ft | 398 kts | 343° |
| 2026-05-04 21:04 | 41.74477 | 28.41969 | 22903 ft | 402 kts | 342° |
| 2026-05-04 21:05 | 41.77085 | 28.40533 | 23672 ft | 408 kts | 341° |
| 2026-05-04 21:05 | 41.79725 | 28.39059 | 24311 ft | 413 kts | 341° |
| 2026-05-04 21:05 | 41.82354 | 28.37582 | 24985 ft | 417 kts | 341° |
| 2026-05-04 21:05 | 41.85035 | 28.36073 | 25668 ft | 420 kts | 341° |
| 2026-05-04 21:06 | 41.87741 | 28.34550 | 26320 ft | 424 kts | 340° |
| 2026-05-04 21:06 | 41.90473 | 28.33013 | 26938 ft | 428 kts | 340° |
| 2026-05-04 21:06 | 41.93235 | 28.31458 | 27557 ft | 432 kts | 340° |
| 2026-05-04 21:06 | 41.96003 | 28.29868 | 28101 ft | 434 kts | 337° |
| 2026-05-04 21:07 | 41.98559 | 28.27616 | 28646 ft | 446 kts | 322° |
| 2026-05-04 21:07 | 42.00601 | 28.24463 | 29446 ft | 449 kts | 308° |
| 2026-05-04 21:07 | 42.02308 | 28.20947 | 30223 ft | 448 kts | 307° |
| 2026-05-04 21:07 | 42.04011 | 28.17436 | 30769 ft | 451 kts | 307° |
| 2026-05-04 21:08 | 42.05768 | 28.13867 | 30852 ft | 463 kts | 308° |
| 2026-05-04 21:08 | 42.07577 | 28.10234 | 31044 ft | 470 kts | 308° |
| 2026-05-04 21:08 | 42.09401 | 28.06587 | 31634 ft | 467 kts | 308° |
| 2026-05-04 21:08 | 42.10594 | 28.04204 | 32012 ft | 460 kts | 308° |
| 2026-05-04 21:09 | 42.13124 | 27.99157 | 32035 ft | 444 kts | 308° |
| 2026-05-04 21:09 | 42.14378 | 27.96649 | 32037 ft | 433 kts | 308° |
| 2026-05-04 21:09 | 42.16062 | 27.93292 | 32058 ft | 436 kts | 308° |
| 2026-05-04 21:10 | 42.17787 | 27.89856 | 32076 ft | 448 kts | 308° |
| 2026-05-04 21:10 | 42.19544 | 27.86346 | 32072 ft | 453 kts | 308° |
| 2026-05-04 21:10 | 42.23683 | 27.80142 | 32065 ft | 440 kts | 323° |
| 2026-05-04 21:11 | 42.28755 | 27.75672 | 32062 ft | 433 kts | 334° |
| 2026-05-04 21:11 | 42.34087 | 27.71861 | 32071 ft | 434 kts | 334° |
| 2026-05-04 21:12 | 42.39426 | 27.68000 | 32069 ft | 437 kts | 334° |
| 2026-05-04 21:12 | 42.44785 | 27.64070 | 32076 ft | 438 kts | 334° |
| 2026-05-04 21:13 | 42.50119 | 27.60140 | 32064 ft | 439 kts | 333° |
| 2026-05-04 21:13 | 42.55493 | 27.56173 | 32074 ft | 440 kts | 333° |
| 2026-05-04 21:14 | 42.60746 | 27.51912 | 32075 ft | 442 kts | 327° |
| 2026-05-04 21:14 | 42.65717 | 27.47000 | 32077 ft | 441 kts | 326° |
| 2026-05-04 21:15 | 42.70681 | 27.42074 | 32064 ft | 441 kts | 326° |
| 2026-05-04 21:15 | 42.75646 | 27.37172 | 32090 ft | 441 kts | 326° |
| 2026-05-04 21:16 | 42.80614 | 27.32275 | 32084 ft | 441 kts | 326° |
| 2026-05-04 21:16 | 42.85586 | 27.27366 | 32078 ft | 440 kts | 326° |
| 2026-05-04 21:17 | 42.90515 | 27.22487 | 32087 ft | 440 kts | 325° |
| 2026-05-04 21:17 | 42.95468 | 27.17574 | 32068 ft | 440 kts | 325° |
| 2026-05-04 21:18 | 43.00414 | 27.12652 | 32093 ft | 444 kts | 325° |
| 2026-05-04 21:18 | 43.05513 | 27.07581 | 32096 ft | 458 kts | 325° |
| 2026-05-04 21:19 | 43.10668 | 27.02445 | 32082 ft | 458 kts | 325° |
| 2026-05-04 21:19 | 43.15945 | 26.97578 | 32082 ft | 457 kts | 327° |
| 2026-05-04 21:20 | 43.21280 | 26.92825 | 32060 ft | 457 kts | 327° |
| 2026-05-04 21:20 | 43.26567 | 26.88064 | 32078 ft | 457 kts | 327° |
| 2026-05-04 21:21 | 43.31871 | 26.83235 | 32081 ft | 458 kts | 327° |
| 2026-05-04 21:21 | 43.37172 | 26.78384 | 32070 ft | 458 kts | 327° |
| 2026-05-04 21:22 | 43.39780 | 26.75993 | 32044 ft | 438 kts | 326° |
| 2026-05-04 21:22 | 43.42279 | 26.73700 | 31719 ft | 429 kts | 326° |
| 2026-05-04 21:22 | 43.44767 | 26.71414 | 30971 ft | 431 kts | 326° |
| 2026-05-04 21:22 | 43.46417 | 26.69899 | 30669 ft | 429 kts | 326° |
| 2026-05-04 21:23 | 43.54591 | 26.62369 | 28225 ft | 434 kts | 326° |
| 2026-05-04 21:23 | 43.57085 | 26.60066 | 28066 ft | 426 kts | 326° |
| 2026-05-04 21:24 | 43.61934 | 26.55585 | 28118 ft | 401 kts | 326° |
| 2026-05-04 21:24 | 43.64178 | 26.53509 | 27918 ft | 379 kts | 326° |
| 2026-05-04 21:24 | 43.66329 | 26.51517 | 27257 ft | 365 kts | 326° |
| 2026-05-04 21:25 | 43.68410 | 26.49590 | 26522 ft | 352 kts | 326° |
| 2026-05-04 21:25 | 43.70418 | 26.47727 | 25773 ft | 346 kts | 326° |
| 2026-05-04 21:25 | 43.71040 | 26.47150 | 25636 ft | 341 kts | 326° |
| 2026-05-04 21:25 | 43.72973 | 26.45356 | 25273 ft | 328 kts | 326° |
| 2026-05-04 21:26 | 43.74863 | 26.43599 | 24927 ft | 326 kts | 326° |
| 2026-05-04 21:26 | 43.76745 | 26.41848 | 24549 ft | 325 kts | 326° |
| 2026-05-04 21:26 | 43.77756 | 26.40908 | 24351 ft | 324 kts | 326° |
| 2026-05-04 21:26 | 43.79458 | 26.39322 | 24018 ft | 323 kts | 326° |
| 2026-05-04 21:27 | 43.81314 | 26.37592 | 23640 ft | 322 kts | 326° |
| 2026-05-04 21:27 | 43.83191 | 26.35843 | 23242 ft | 329 kts | 327° |
| 2026-05-04 21:27 | 43.85104 | 26.34057 | 22820 ft | 330 kts | 327° |
| 2026-05-04 21:27 | 43.86979 | 26.32305 | 22392 ft | 319 kts | 327° |
| 2026-05-04 21:28 | 43.88784 | 26.30616 | 22036 ft | 308 kts | 327° |
| 2026-05-04 21:28 | 43.90541 | 26.28972 | 21686 ft | 303 kts | 328° |
| 2026-05-04 21:28 | 43.92299 | 26.27327 | 21352 ft | 310 kts | 328° |
| 2026-05-04 21:28 | 43.94136 | 26.25610 | 21001 ft | 324 kts | 328° |
| 2026-05-04 21:29 | 43.97963 | 26.22017 | 20175 ft | 307 kts | 328° |
| 2026-05-04 21:29 | 43.99671 | 26.20379 | 19824 ft | 293 kts | 328° |
| 2026-05-04 21:29 | 44.01345 | 26.18745 | 19519 ft | 295 kts | 328° |
| 2026-05-04 21:30 | 44.03043 | 26.17085 | 19139 ft | 302 kts | 328° |
| 2026-05-04 21:30 | 44.04781 | 26.15388 | 18678 ft | 307 kts | 329° |
| 2026-05-04 21:30 | 44.06536 | 26.13672 | 18170 ft | 311 kts | 329° |
| 2026-05-04 21:30 | 44.08293 | 26.11955 | 17655 ft | 314 kts | 329° |
| 2026-05-04 21:31 | 44.11355 | 26.07495 | 16513 ft | 347 kts | 296° |
| 2026-05-04 21:31 | 44.12135 | 26.04270 | 15765 ft | 350 kts | 291° |
| 2026-05-04 21:31 | 44.12870 | 26.01017 | 15411 ft | 350 kts | 291° |
| 2026-05-04 21:32 | 44.13589 | 25.97828 | 15172 ft | 340 kts | 292° |
| 2026-05-04 21:32 | 44.14294 | 25.94707 | 14910 ft | 338 kts | 292° |
| 2026-05-04 21:32 | 44.15003 | 25.91590 | 14835 ft | 337 kts | 292° |
| 2026-05-04 21:32 | 44.15700 | 25.88520 | 14617 ft | 330 kts | 292° |
| 2026-05-04 21:33 | 44.16398 | 25.85460 | 14234 ft | 331 kts | 292° |
| 2026-05-04 21:33 | 44.17095 | 25.82408 | 13860 ft | 331 kts | 292° |
| 2026-05-04 21:33 | 44.17790 | 25.79358 | 13448 ft | 330 kts | 292° |
| 2026-05-04 21:33 | 44.18481 | 25.76319 | 13141 ft | 327 kts | 292° |
| 2026-05-04 21:34 | 44.19165 | 25.73308 | 12832 ft | 324 kts | 292° |
| 2026-05-04 21:34 | 44.19842 | 25.70327 | 12541 ft | 320 kts | 292° |
| 2026-05-04 21:34 | 44.20501 | 25.67414 | 11880 ft | 310 kts | 292° |
| 2026-05-04 21:34 | 44.21129 | 25.64630 | 11472 ft | 292 kts | 293° |
| 2026-05-04 21:35 | 44.21721 | 25.62001 | 11141 ft | 277 kts | 294° |
| 2026-05-04 21:35 | 44.22288 | 25.59493 | 10816 ft | 268 kts | 294° |
| 2026-05-04 21:35 | 44.22854 | 25.56999 | 10525 ft | 274 kts | 294° |
| 2026-05-04 21:35 | 44.23476 | 25.54481 | 10352 ft | 279 kts | 302° |
| 2026-05-04 21:36 | 44.24651 | 25.52489 | 10213 ft | 256 kts | 333° |
| 2026-05-04 21:36 | 44.26198 | 25.51567 | 10100 ft | 233 kts | 352° |
| 2026-05-04 21:36 | 44.27830 | 25.51211 | 9882 ft | 244 kts | 358° |
| 2026-05-04 21:36 | 44.29542 | 25.50959 | 9588 ft | 249 kts | 358° |
| 2026-05-04 21:37 | 44.31243 | 25.50708 | 9259 ft | 240 kts | 358° |
| 2026-05-04 21:37 | 44.32857 | 25.50461 | 8988 ft | 228 kts | 358° |
| 2026-05-04 21:37 | 44.34484 | 25.50214 | 8749 ft | 242 kts | 358° |
| 2026-05-04 21:37 | 44.36194 | 25.49954 | 8449 ft | 249 kts | 357° |
| 2026-05-04 21:38 | 44.37919 | 25.49686 | 8128 ft | 251 kts | 356° |
| 2026-05-04 21:38 | 44.39679 | 25.49410 | 7813 ft | 254 kts | 356° |
| 2026-05-04 21:38 | 44.41409 | 25.49133 | 7518 ft | 246 kts | 356° |
| 2026-05-04 21:38 | 44.43065 | 25.48870 | 7244 ft | 239 kts | 356° |
| 2026-05-04 21:39 | 44.44696 | 25.48611 | 6976 ft | 233 kts | 356° |
| 2026-05-04 21:39 | 44.46307 | 25.48356 | 6716 ft | 234 kts | 356° |
| 2026-05-04 21:39 | 44.47955 | 25.48097 | 6459 ft | 242 kts | 356° |
| 2026-05-04 21:39 | 44.49602 | 25.48224 | 6135 ft | 233 kts | 20° |
| 2026-05-04 21:40 | 44.50908 | 25.49408 | 5876 ft | 220 kts | 45° |
| 2026-05-04 21:40 | 44.51835 | 25.51185 | 5635 ft | 234 kts | 59° |
| 2026-05-04 21:40 | 44.52333 | 25.53415 | 5353 ft | 246 kts | 78° |
| 2026-05-04 21:40 | 44.52516 | 25.55789 | 5047 ft | 242 kts | 81° |
| 2026-05-04 21:41 | 44.52667 | 25.58079 | 4755 ft | 228 kts | 81° |
| 2026-05-04 21:41 | 44.52805 | 25.60230 | 4469 ft | 216 kts | 81° |
| 2026-05-04 21:41 | 44.52951 | 25.62299 | 4207 ft | 213 kts | 81° |
| 2026-05-04 21:41 | 44.53110 | 25.64401 | 3974 ft | 223 kts | 81° |
| 2026-05-04 21:42 | 44.53290 | 25.66696 | 3733 ft | 248 kts | 81° |
| 2026-05-04 21:42 | 44.53476 | 25.69075 | 3403 ft | 243 kts | 82° |
| 2026-05-04 21:42 | 44.53683 | 25.71430 | 3116 ft | 245 kts | 77° |
| 2026-05-04 21:42 | 44.54082 | 25.73767 | 2898 ft | 246 kts | 73° |
| 2026-05-04 21:43 | 44.54500 | 25.75983 | 2758 ft | 230 kts | 73° |
| 2026-05-04 21:43 | 44.54887 | 25.78088 | 2707 ft | 217 kts | 74° |
| 2026-05-04 21:43 | 44.55255 | 25.80123 | 2596 ft | 214 kts | 74° |
| 2026-05-04 21:43 | 44.55598 | 25.82167 | 2539 ft | 216 kts | 77° |
| 2026-05-04 21:44 | 44.55824 | 25.84234 | 2496 ft | 209 kts | 81° |
| 2026-05-04 21:44 | 44.55982 | 25.86212 | 2485 ft | 203 kts | 82° |
| 2026-05-04 21:44 | 44.56132 | 25.88197 | 2498 ft | 207 kts | 82° |
| 2026-05-04 21:44 | 44.56279 | 25.90162 | 2482 ft | 197 kts | 82° |
| 2026-05-04 21:45 | 44.56415 | 25.91977 | 2490 ft | 177 kts | 82° |
| 2026-05-04 21:45 | 44.56539 | 25.93612 | 2412 ft | 163 kts | 82° |
| 2026-05-04 21:45 | 44.56655 | 25.95132 | 2213 ft | 151 kts | 82° |
| 2026-05-04 21:45 | 44.56765 | 25.96581 | 2002 ft | 149 kts | 81° |
| 2026-05-04 21:46 | 44.56875 | 25.98030 | 1807 ft | 151 kts | 82° |
| 2026-05-04 21:46 | 44.56986 | 25.99498 | 1614 ft | 151 kts | 82° |
| 2026-05-04 21:46 | 44.57097 | 26.00963 | 1398 ft | 150 kts | 82° |
| 2026-05-04 21:46 | 44.57207 | 26.02407 | 1196 ft | 147 kts | 82° |
| 2026-05-04 21:47 | 44.57313 | 26.03807 | 1019 ft | 145 kts | 83° |
| 2026-05-04 21:47 | 44.57415 | 26.05209 | 828 ft | 144 kts | 83° |
| 2026-05-04 21:47 | 44.57523 | 26.06597 | 625 ft | 142 kts | 83° |
| 2026-05-04 21:47 | 44.57629 | 26.07963 | 424 ft | 140 kts | 83° |
| 2026-05-04 21:48 | 44.57730 | 26.09313 | 325 ft | 132 kts | 83° |
| 2026-05-04 21:48 | 44.57810 | 26.10397 | 325 ft | 86 kts | 84° |
| 2026-05-04 21:48 | 44.57818 | 26.10938 | 325 ft | 41 kts | 105° |
| 2026-05-04 21:48 | 44.57708 | 26.11161 | 325 ft | 18 kts | 194° |
| 2026-05-04 21:49 | 44.57685 | 26.11057 | 323 ft | 8 kts | 263° |
| 2026-05-04 21:49 | 44.57679 | 26.10982 | 326 ft | 10 kts | 263° |
| 2026-05-04 21:49 | 44.57666 | 26.10788 | 322 ft | 23 kts | 264° |
| 2026-05-04 21:49 | 44.57648 | 26.10561 | 323 ft | 23 kts | 263° |
| 2026-05-04 21:50 | 44.57631 | 26.10331 | 324 ft | 25 kts | 264° |
| 2026-05-04 21:50 | 44.57608 | 26.10027 | 326 ft | 33 kts | 264° |
| 2026-05-04 21:50 | 44.57585 | 26.09711 | 323 ft | 32 kts | 264° |
| 2026-05-04 21:50 | 44.57561 | 26.09396 | 324 ft | 32 kts | 264° |
| 2026-05-04 21:51 | 44.57537 | 26.09081 | 323 ft | 32 kts | 263° |
| 2026-05-04 21:51 | 44.57513 | 26.08774 | 322 ft | 31 kts | 264° |
| 2026-05-04 21:51 | 44.57490 | 26.08521 | 322 ft | 17 kts | 245° |
| 2026-05-04 21:51 | 44.57350 | 26.08488 | 321 ft | 24 kts | 175° |
| 2026-05-04 21:52 | 44.57239 | 26.08503 | 322 ft | 24 kts | 174° |
| 2026-05-04 21:52 | 44.57016 | 26.08538 | 321 ft | 24 kts | 173° |
| 2026-05-04 21:52 | 44.56915 | 26.08522 | 322 ft | 20 kts | 222° |
| 2026-05-04 21:52 | 44.56940 | 26.08403 | 323 ft | 13 kts | 343° |
| 2026-05-04 21:53 | 44.56997 | 26.08330 | 323 ft | 11 kts | 309° |
| 2026-05-04 21:53 | 44.57032 | 26.08269 | 323 ft | 3 kts | 309° |
| 2026-05-04 21:53 | 44.57032 | 26.08267 | 323 ft | 3 kts | 309° |
| 2026-05-04 21:53 | 44.57039 | 26.08255 | 324 ft | 0 kts | 309° |